TFM - Tactical Decision Aid INFO Settings
 
 

ID: Runway Winds: METAR Board: Map:

KDFW - Dallas/Fort Worth Intl

Updated at: 2132 UTC 22 Jul 2014
Latest TAF at: 2050 UTC 22 Jul 2014

TAF Board

Time2053Z22/22Z22/23Z23/00Z23/01Z23/02Z23/03Z23/04Z23/05Z23/06Z23/07Z23/08Z23/09Z23/10Z
TypeOBSPRVLPRVLPRVLPRVLPRVLPRVLPRVLPRVLPRVLPRVLPRVLPRVLPRVL
Vis10>6>6>6>6>6>6>6>6>6>6>6>6>6
Cig65--------------------------
CoverBKNFEWFEWFEWFEWFEWFEWFEWFEWFEWSCTSCTSCTSCT
FltCat--VFRVFRVFRVFRVFRVFRVFRVFRVFRVFRVFRVFRVFR
Wx----------------------------
WDirVRB909090909090909090140140140140
WSpd44444444445555
WGst----------------------------
Raw TAF
KDFW 222050Z 2221/2324 09004KT P6SM FEW050
  FM230700 14005KT P6SM SCT250


Raw METAR
KDFW 222053Z VRB04KT 10SM BKN065 BKN300 37/20 A3003 RMK AO2 SLP157 T03670200 58009 $

TAF/METAR Board Legend

Hazard Green Yellow Red Magenta
Visibility (sm) >5 >2.99 >0.99 <=0.99
Ceiling (100 ft) >30 >9.99 >4.9 <=4.9
Wind Speed (kt) <10 <20 <30 >=30
Wind Gust (kt) <10 <20 <30 >=30
Weather No Wx Reported Light precipitation Moderate precipitation Heavy precipitation
Flight Category VFR MVFR IFR LIFR

Page loaded:  21:32 UTC  |   02:32 PM Pacific  |   03:32 PM Mountain  |   04:32 PM Central  |   05:32 PM Eastern

 

ADVISORIES

FORECASTS

FORECASTS

OBSERVATIONS

USER TOOLS

ABOUT US